Terminal Aerodrome Forecast
Issued by NWS Cleveland, OH

Home | Current Version | Previous Version | Graphics & Text | Print | Product List | Glossary On
Versions: 1 2 3 4 5 6 7 8 9 10 11 12 13 14 15 16 17 18 19 20 21 22 23 24 25 26 27 28 29 30 31 32 33
033
FTUS41 KCLE 220855 AAB
TAFCLE
TAF AMD
KCLE 220855Z 2209/2312 04011KT 6SM -SNPL BR OVC015
      TEMPO 2209/2212 6SM -FZRA BR OVC010
     FM222000 04012KT P6SM OVC007
     FM230000 04008KT P6SM OVC007
     FM230900 11009KT P6SM OVC015=

USA.gov is the U.S. government's official web portal to all federal, state and local government web resources and services.